createdAt,value
2023-05-06T00:01:18.399Z,454.97
2023-05-06T00:03:55.536Z,446.20
2023-05-06T00:06:37.097Z,457.83
2023-05-06T00:09:30.446Z,374.00
2023-05-06T00:12:11.965Z,436.65
2023-05-06T00:14:40.022Z,418.00
2023-05-06T00:17:20.199Z,476.73
2023-05-06T00:19:58.760Z,357.65
2023-05-06T00:22:42.744Z,409.08
2023-05-06T00:25:26.476Z,334.02
2023-05-06T00:27:57.383Z,354.63
2023-05-06T00:30:35.627Z,372.17
2023-05-06T00:33:42.825Z,336.40
2023-05-06T00:36:12.233Z,295.33
2023-05-06T00:38:41.711Z,309.85
2023-05-06T00:41:15.919Z,304.10
2023-05-06T00:43:57.049Z,271.20
2023-05-06T00:46:55.368Z,321.88
2023-05-06T00:49:29.203Z,298.05
2023-05-06T00:52:30.347Z,362.50
2023-05-06T00:54:59.684Z,291.70
2023-05-06T01:00:57.898Z,201.93
2023-05-06T01:03:23.902Z,181.45
2023-05-06T01:06:08.787Z,200.88
2023-05-06T01:09:09.223Z,160.65
2023-05-06T01:11:52.634Z,159.98
2023-05-06T01:17:30.282Z,161.27
2023-05-06T01:20:22.485Z,172.55
2023-05-06T01:22:54.864Z,159.23
2023-05-06T01:25:36.445Z,167.43
2023-05-06T01:28:17.506Z,188.50
2023-05-06T01:34:15.916Z,163.48
2023-05-06T01:37:20.395Z,157.27
2023-05-06T01:40:09.230Z,132.45
2023-05-06T01:43:18.073Z,122.55
2023-05-06T01:45:37.960Z,115.65
2023-05-06T01:48:12.470Z,126.75
2023-05-06T01:53:56.253Z,114.97
2023-05-06T01:56:36.037Z,110.82
2023-05-06T01:59:16.090Z,109.07
2023-05-06T02:02:38.652Z,119.35
2023-05-06T02:04:53.693Z,112.68
2023-05-06T02:07:30.640Z,121.10
2023-05-06T02:10:06.008Z,117.55
2023-05-06T02:13:09.909Z,121.75
2023-05-06T02:15:49.361Z,112.82
2023-05-06T02:21:26.036Z,107.25
2023-05-06T02:24:07.626Z,110.63
2023-05-06T02:26:37.696Z,111.95
2023-05-06T02:29:26.957Z,108.10
2023-05-06T02:32:05.080Z,106.85
2023-05-06T02:34:36.177Z,102.40
2023-05-06T02:37:09.274Z,101.65
2023-05-06T02:39:51.614Z,108.95
2023-05-06T02:42:25.696Z,101.75
2023-05-06T02:45:06.569Z,104.18
2023-05-06T02:47:37.532Z,102.10
2023-05-06T02:50:18.432Z,104.53
2023-05-06T02:52:52.583Z,97.28
2023-05-06T02:55:33.787Z,106.05
2023-05-06T02:58:04.740Z,100.90
2023-05-06T03:00:32.756Z,94.57
2023-05-06T03:03:14.787Z,97.03
2023-05-06T03:05:41.868Z,97.80
2023-05-06T03:08:10.986Z,98.88
2023-05-06T03:10:39.152Z,100.30
2023-05-06T03:13:14.520Z,99.97
2023-05-06T03:16:05.267Z,92.45
2023-05-06T03:20:21.314Z,92.00
2023-05-06T03:21:57.250Z,94.80
2023-05-06T03:24:29.958Z,100.75
2023-05-06T03:27:03.844Z,91.00
2023-05-06T03:29:34.537Z,90.38
2023-05-06T03:32:07.061Z,83.82
2023-05-06T03:35:36.251Z,85.93
2023-05-06T03:38:17.871Z,83.50
2023-05-06T03:40:42.676Z,81.70
2023-05-06T03:43:16.009Z,82.15
2023-05-06T03:45:57.268Z,78.23
2023-05-06T03:48:31.749Z,77.93
2023-05-06T03:51:00.745Z,84.53
2023-05-06T03:53:30.651Z,84.00
2023-05-06T03:56:25.429Z,83.32
2023-05-06T03:59:04.046Z,79.55
2023-05-06T04:02:39.518Z,78.97
2023-05-06T04:04:55.147Z,85.00
2023-05-06T04:07:29.287Z,87.32
2023-05-06T04:10:23.249Z,84.45
2023-05-06T04:12:49.448Z,84.55
2023-05-06T04:15:20.217Z,86.03
2023-05-06T04:17:49.230Z,85.63
2023-05-06T04:20:16.257Z,79.18
2023-05-06T04:22:43.000Z,80.53
2023-05-06T04:25:14.223Z,82.85
2023-05-06T04:28:07.617Z,85.07
2023-05-06T04:31:04.613Z,82.47
2023-05-06T04:33:40.147Z,81.13
2023-05-06T04:39:11.933Z,91.10
2023-05-06T04:41:47.546Z,93.50
2023-05-06T04:44:16.796Z,83.43
2023-05-06T04:46:43.468Z,91.72
2023-05-06T04:49:35.638Z,97.47
2023-05-06T04:54:59.782Z,98.88
2023-05-06T04:57:49.660Z,105.68
2023-05-06T05:00:27.640Z,102.72
2023-05-06T05:03:04.703Z,109.95
2023-05-06T05:05:39.074Z,110.80
2023-05-06T05:10:40.848Z,105.00
2023-05-06T05:13:07.662Z,109.40
2023-05-06T05:15:34.437Z,115.07
2023-05-06T05:18:01.235Z,118.70
2023-05-06T05:20:29.539Z,117.88
2023-05-06T05:23:13.128Z,125.47
2023-05-06T05:25:39.860Z,121.35
2023-05-06T05:28:10.561Z,125.68
2023-05-06T05:30:37.308Z,127.50
2023-05-06T05:33:04.343Z,127.30
2023-05-06T05:35:31.868Z,136.13
2023-05-06T05:38:01.449Z,125.75
2023-05-06T05:40:28.239Z,124.95
2023-05-06T05:42:55.484Z,136.55
2023-05-06T05:45:22.207Z,142.55
2023-05-06T05:47:48.903Z,171.60
2023-05-06T05:50:15.574Z,192.27
2023-05-06T05:52:50.250Z,219.93
2023-05-06T05:55:22.057Z,197.75
2023-05-06T05:57:56.331Z,194.02
2023-05-06T06:06:47.182Z,135.30
2023-05-06T06:09:13.874Z,167.88
2023-05-06T06:11:40.970Z,205.20
2023-05-06T06:14:07.869Z,215.70
2023-05-06T06:16:34.497Z,239.00
2023-05-06T06:19:02.711Z,252.52
2023-05-06T06:21:29.488Z,295.10
2023-05-06T06:23:56.268Z,306.35
2023-05-06T06:26:44.773Z,308.42
2023-05-06T06:29:21.563Z,227.68
2023-05-06T06:31:51.507Z,238.38
2023-05-06T06:34:22.248Z,276.33
2023-05-06T06:36:55.087Z,294.05
2023-05-06T06:39:21.707Z,312.48
2023-05-06T06:41:50.418Z,303.55
2023-05-06T06:44:50.089Z,279.00
2023-05-06T06:47:16.822Z,258.45
2023-05-06T06:49:52.719Z,322.52
2023-05-06T06:52:19.302Z,314.25
2023-05-06T06:54:45.992Z,310.60
2023-05-06T06:57:21.685Z,292.90
2023-05-06T06:59:50.376Z,266.02
2023-05-06T07:02:17.133Z,249.40
2023-05-06T07:04:55.810Z,300.13
2023-05-06T07:07:44.058Z,197.15
2023-05-06T07:10:25.325Z,308.50
2023-05-06T07:12:57.627Z,285.52
2023-05-06T07:15:33.484Z,360.17
2023-05-06T07:18:09.515Z,337.20
2023-05-06T07:20:36.021Z,284.40
2023-05-06T07:23:04.155Z,273.88
2023-05-06T07:25:31.336Z,229.73
2023-05-06T07:27:57.989Z,208.43
2023-05-06T07:30:24.523Z,182.85
2023-05-06T07:32:56.936Z,155.90
2023-05-06T07:35:23.390Z,241.35
2023-05-06T07:37:55.793Z,163.80
2023-05-06T07:40:22.363Z,233.73
2023-05-06T07:42:48.717Z,195.18
2023-05-06T07:45:15.380Z,160.82
2023-05-06T07:47:41.914Z,209.50
2023-05-06T07:50:08.828Z,127.55
2023-05-06T07:52:35.564Z,73.78
2023-05-06T07:55:01.938Z,62.45
2023-05-06T07:57:28.416Z,79.15
2023-05-06T07:59:55.065Z,89.72
2023-05-06T08:02:21.781Z,50.40
2023-05-06T08:04:50.177Z,39.13
2023-05-06T08:07:17.902Z,30.42
2023-05-06T08:09:44.275Z,52.17
2023-05-06T08:12:10.810Z,33.97
2023-05-06T08:14:37.278Z,24.02
2023-05-06T08:17:04.012Z,30.48
2023-05-06T08:19:30.786Z,32.08
2023-05-06T08:21:57.247Z,33.45
2023-05-06T08:24:23.836Z,34.03
2023-05-06T08:26:50.352Z,40.53
2023-05-06T08:29:23.467Z,34.15
2023-05-06T08:31:49.903Z,33.00
2023-05-06T08:34:18.505Z,38.40
2023-05-06T08:36:45.339Z,38.17
2023-05-06T08:39:12.545Z,37.88
2023-05-06T08:41:40.355Z,40.90
2023-05-06T08:44:08.494Z,39.58
2023-05-06T08:46:35.485Z,39.92
2023-05-06T08:49:02.416Z,43.60
2023-05-06T08:51:31.793Z,43.47
2023-05-06T08:54:02.395Z,38.78
2023-05-06T08:56:31.029Z,41.60
2023-05-06T08:58:59.656Z,40.55
2023-05-06T09:01:29.112Z,45.33
2023-05-06T09:03:58.200Z,42.08
2023-05-06T09:06:25.141Z,45.25
2023-05-06T09:08:51.712Z,42.20
2023-05-06T09:11:26.722Z,46.70
2023-05-06T09:14:11.922Z,43.78
2023-05-06T09:16:40.244Z,40.50
2023-05-06T09:19:06.855Z,40.88
2023-05-06T09:21:41.367Z,52.17
2023-05-06T09:24:09.536Z,43.53
2023-05-06T09:26:37.568Z,33.83
2023-05-06T09:29:05.168Z,33.55
2023-05-06T09:31:31.971Z,32.28
2023-05-06T09:34:01.041Z,17.77
2023-05-06T09:36:28.407Z,9.73
2023-05-06T09:38:55.887Z,9.50
2023-05-06T09:41:28.136Z,8.40
2023-05-06T09:43:56.270Z,8.88
2023-05-06T09:46:24.267Z,14.23
2023-05-06T09:48:52.838Z,10.93
2023-05-06T09:51:22.249Z,10.13
2023-05-06T09:53:48.941Z,16.20
2023-05-06T09:56:18.144Z,21.38
2023-05-06T09:58:46.079Z,10.93
2023-05-06T10:01:19.167Z,10.50
2023-05-06T10:03:52.999Z,27.98
2023-05-06T10:06:22.979Z,9.48
2023-05-06T10:08:50.133Z,9.57
2023-05-06T10:11:17.899Z,11.55
2023-05-06T10:13:44.600Z,11.48
2023-05-06T10:16:19.457Z,11.02
2023-05-06T10:18:52.141Z,11.00
2023-05-06T10:21:24.211Z,14.75
2023-05-06T10:24:01.211Z,7.78
2023-05-06T10:26:30.490Z,12.20
2023-05-06T10:29:00.408Z,8.57
2023-05-06T10:31:30.119Z,11.70
2023-05-06T10:34:00.806Z,9.75
2023-05-06T10:36:32.193Z,9.43
2023-05-06T10:39:01.652Z,7.60
2023-05-06T10:41:34.881Z,7.22
2023-05-06T10:44:08.917Z,8.73
2023-05-06T10:47:02.189Z,6.63
2023-05-06T10:49:29.192Z,5.75
2023-05-06T10:52:14.889Z,6.75
2023-05-06T10:54:51.378Z,6.75
2023-05-06T10:57:18.593Z,8.48
2023-05-06T10:59:51.468Z,7.00
2023-05-06T11:02:20.284Z,8.07
2023-05-06T11:04:52.242Z,7.57
2023-05-06T11:07:28.945Z,7.45
2023-05-06T11:10:04.321Z,7.70
2023-05-06T11:12:49.374Z,6.65
2023-05-06T11:15:41.548Z,8.63
2023-05-06T11:18:29.523Z,6.85
2023-05-06T11:21:05.403Z,7.38
2023-05-06T11:23:54.612Z,7.30
2023-05-06T11:26:21.452Z,5.82
2023-05-06T11:28:52.107Z,6.45
2023-05-06T11:31:21.209Z,8.93
2023-05-06T11:33:50.288Z,9.02
2023-05-06T11:36:18.385Z,7.57
2023-05-06T11:38:50.078Z,9.18
2023-05-06T11:44:11.577Z,5.60
2023-05-06T11:46:39.229Z,6.03
2023-05-06T11:49:06.221Z,6.88
2023-05-06T11:51:33.420Z,11.45
2023-05-06T11:54:08.917Z,10.50
2023-05-06T11:56:50.940Z,8.30
2023-05-06T11:59:18.799Z,10.85
2023-05-06T12:01:46.273Z,15.70
2023-05-06T12:04:13.433Z,11.38
2023-05-06T12:06:40.322Z,13.50
2023-05-06T12:09:11.216Z,6.13
2023-05-06T12:11:38.856Z,5.97
2023-05-06T12:14:07.267Z,8.45
2023-05-06T12:16:35.365Z,9.50
2023-05-06T12:19:02.648Z,9.20
2023-05-06T12:21:30.090Z,10.13
2023-05-06T12:23:59.503Z,6.47
2023-05-06T12:26:31.174Z,7.78
2023-05-06T12:29:09.546Z,8.43
2023-05-06T12:31:36.342Z,7.25
2023-05-06T12:34:03.621Z,8.35
2023-05-06T12:36:30.758Z,7.78
2023-05-06T12:39:00.752Z,10.73
2023-05-06T12:41:43.866Z,10.77
2023-05-06T12:44:29.526Z,8.30
2023-05-06T12:46:56.075Z,7.20
2023-05-06T12:49:22.541Z,7.95
2023-05-06T12:52:06.043Z,34.75
2023-05-06T12:54:32.440Z,16.52
2023-05-06T12:56:58.840Z,7.55
2023-05-06T12:59:26.605Z,7.85
2023-05-06T13:01:53.148Z,11.52
2023-05-06T13:04:19.552Z,7.72
2023-05-06T13:06:46.231Z,7.35
2023-05-06T13:09:14.737Z,20.42
2023-05-06T13:11:41.750Z,7.57
2023-05-06T13:14:08.995Z,7.63
2023-05-06T13:16:35.466Z,9.07
2023-05-06T13:19:03.365Z,7.03
2023-05-06T13:21:29.727Z,9.52
2023-05-06T13:23:56.162Z,11.60
2023-05-06T13:26:22.576Z,8.25
2023-05-06T13:28:48.982Z,10.55
2023-05-06T13:31:15.530Z,12.68
2023-05-06T13:33:41.960Z,9.45
2023-05-06T13:36:08.587Z,9.63
2023-05-06T13:38:35.308Z,8.50
2023-05-06T13:41:01.689Z,8.38
2023-05-06T13:43:28.162Z,8.57
2023-05-06T13:45:54.530Z,7.45
2023-05-06T13:48:21.190Z,8.95
2023-05-06T13:50:47.859Z,9.93
2023-05-06T13:53:15.051Z,14.32
2023-05-06T13:55:42.715Z,24.20
2023-05-06T13:58:09.201Z,211.93
2023-05-06T14:00:45.957Z,813.90
2023-05-06T14:03:12.533Z,960.85
2023-05-06T14:05:39.189Z,810.10
2023-05-06T14:08:06.180Z,865.97
2023-05-06T14:10:54.312Z,765.60
2023-05-06T14:13:23.084Z,708.45
2023-05-06T14:16:00.043Z,824.08
2023-05-06T14:18:28.678Z,902.25
2023-05-06T14:20:56.235Z,898.40
2023-05-06T14:23:22.790Z,884.47
2023-05-06T14:25:49.589Z,988.97
2023-05-06T14:28:22.109Z,1010.55
2023-05-06T14:30:52.138Z,930.75
2023-05-06T14:33:18.737Z,904.28
2023-05-06T14:36:04.618Z,1029.60
2023-05-06T14:38:41.034Z,1027.03
2023-05-06T14:41:07.522Z,1026.18
2023-05-06T14:43:34.076Z,1063.00
2023-05-06T14:46:02.337Z,1076.90
2023-05-06T14:48:38.619Z,1127.05
2023-05-06T14:51:07.566Z,1146.97
2023-05-06T14:53:56.419Z,1134.90
2023-05-06T14:56:32.660Z,1134.30
2023-05-06T14:59:00.302Z,1126.38
2023-05-06T15:01:28.079Z,1053.45
2023-05-06T15:03:55.685Z,1075.32
2023-05-06T15:06:22.468Z,1065.75
2023-05-06T15:08:49.112Z,1028.00
2023-05-06T15:11:18.514Z,1030.68
2023-05-06T15:13:56.635Z,1061.10
2023-05-06T15:16:24.409Z,1058.45
2023-05-06T15:18:51.533Z,1015.65
2023-05-06T15:21:24.042Z,1002.72
2023-05-06T15:23:55.199Z,1003.88
2023-05-06T15:26:22.603Z,1035.90
2023-05-06T15:28:49.232Z,1042.68
2023-05-06T15:31:15.661Z,962.28
2023-05-06T15:33:42.167Z,980.63
2023-05-06T15:36:08.960Z,897.53
2023-05-06T15:38:58.377Z,973.60
2023-05-06T15:41:37.912Z,902.45
2023-05-06T15:44:06.169Z,868.17
2023-05-06T15:46:33.582Z,941.92
2023-05-06T15:49:29.446Z,907.45
2023-05-06T15:51:47.254Z,788.30
2023-05-06T15:54:18.255Z,860.30
2023-05-06T15:56:46.040Z,850.35
2023-05-06T15:59:15.636Z,883.80
2023-05-06T16:02:24.402Z,814.65
2023-05-06T16:04:28.994Z,936.50
2023-05-06T16:06:56.130Z,887.17
2023-05-06T16:09:22.570Z,890.67
2023-05-06T16:11:49.552Z,870.58
2023-05-06T16:14:16.181Z,899.88
2023-05-06T16:16:42.904Z,855.97
2023-05-06T16:19:09.595Z,906.88
2023-05-06T16:21:39.753Z,926.22
2023-05-06T16:24:06.413Z,928.97
2023-05-06T16:26:32.934Z,860.78
2023-05-06T16:29:01.416Z,891.78
2023-05-06T16:31:31.989Z,906.53
2023-05-06T16:34:04.453Z,844.22
2023-05-06T16:36:38.483Z,883.35
2023-05-06T16:39:07.826Z,822.90
2023-05-06T16:41:34.478Z,870.15
2023-05-06T16:44:04.595Z,851.45
2023-05-06T16:46:31.187Z,911.05
2023-05-06T16:49:25.712Z,931.28
2023-05-06T16:51:53.171Z,887.80
2023-05-06T16:54:20.050Z,900.65
2023-05-06T16:56:51.983Z,886.88
2023-05-06T16:59:21.712Z,894.22
2023-05-06T17:01:48.922Z,968.42
2023-05-06T17:04:16.070Z,992.00
2023-05-06T17:06:42.473Z,964.53
2023-05-06T17:09:08.828Z,984.53
2023-05-06T17:11:35.574Z,962.60
2023-05-06T17:14:02.039Z,974.97
2023-05-06T17:16:28.462Z,965.17
2023-05-06T17:18:54.894Z,958.42
2023-05-06T17:21:21.375Z,987.88
2023-05-06T17:23:47.853Z,981.28
2023-05-06T17:26:16.594Z,1014.17
2023-05-06T17:28:43.153Z,959.42
2023-05-06T17:31:09.566Z,984.10
2023-05-06T17:33:36.435Z,1008.47
2023-05-06T17:36:08.626Z,1023.10
2023-05-06T17:38:35.301Z,1024.50
2023-05-06T17:41:01.705Z,989.65
2023-05-06T17:43:28.120Z,1032.68
2023-05-06T17:45:54.621Z,999.55
2023-05-06T17:48:21.122Z,1009.95
2023-05-06T17:50:47.638Z,1005.15
2023-05-06T17:53:14.490Z,1013.17
2023-05-06T17:55:41.417Z,1004.50
2023-05-06T17:58:10.467Z,963.92
2023-05-06T18:00:37.862Z,947.05
2023-05-06T18:03:04.347Z,897.33
2023-05-06T18:05:30.820Z,901.83
2023-05-06T18:07:58.240Z,899.65
2023-05-06T18:10:24.720Z,943.83
2023-05-06T18:12:53.864Z,923.40
2023-05-06T18:15:20.803Z,928.40
2023-05-06T18:17:47.286Z,899.53
2023-05-06T18:20:13.683Z,932.40
2023-05-06T18:22:40.165Z,912.70
2023-05-06T18:25:07.423Z,880.53
2023-05-06T18:27:33.982Z,872.80
2023-05-06T18:30:02.806Z,872.20
2023-05-06T18:32:31.724Z,873.78
2023-05-06T18:34:58.312Z,845.83
2023-05-06T18:37:28.907Z,839.05
2023-05-06T18:39:55.646Z,839.05
2023-05-06T18:42:22.931Z,831.70
2023-05-06T18:44:53.468Z,869.20
2023-05-06T18:47:20.063Z,900.42
2023-05-06T18:49:46.819Z,855.95
2023-05-06T18:52:15.032Z,819.83
2023-05-06T18:54:43.082Z,854.95
2023-05-06T18:57:10.333Z,824.05
2023-05-06T18:59:36.765Z,862.28
2023-05-06T19:02:04.144Z,847.83
2023-05-06T19:04:31.735Z,828.55
2023-05-06T19:06:58.134Z,849.92
2023-05-06T19:09:24.562Z,836.13
2023-05-06T19:11:51.090Z,829.35
2023-05-06T19:14:17.602Z,840.33
2023-05-06T19:16:44.117Z,841.53
2023-05-06T19:19:11.242Z,861.38
2023-05-06T19:21:38.442Z,847.58
2023-05-06T19:24:06.362Z,792.90
2023-05-06T19:26:32.828Z,836.63
2023-05-06T19:28:59.193Z,771.95
2023-05-06T19:31:25.916Z,764.50
2023-05-06T19:33:52.381Z,736.95
2023-05-06T19:36:18.762Z,728.97
2023-05-06T19:38:45.167Z,778.63
2023-05-06T19:41:13.225Z,819.65
2023-05-06T19:43:43.552Z,837.35
2023-05-06T19:46:11.495Z,859.30
2023-05-06T19:48:39.044Z,878.42
2023-05-06T19:51:06.540Z,842.08
2023-05-06T19:53:34.144Z,837.85
2023-05-06T19:56:14.050Z,870.55
2023-05-06T19:58:40.910Z,820.10
2023-05-06T20:01:07.377Z,823.92
2023-05-06T20:03:34.570Z,848.97
2023-05-06T20:06:01.305Z,810.13
2023-05-06T20:08:27.700Z,777.60
2023-05-06T20:10:54.160Z,765.53
2023-05-06T20:13:20.958Z,775.28
2023-05-06T20:15:47.548Z,777.95
2023-05-06T20:18:14.547Z,749.22
2023-05-06T20:20:41.225Z,758.33
2023-05-06T20:23:07.548Z,740.15
2023-05-06T20:25:36.109Z,701.55
2023-05-06T20:28:05.438Z,730.38
2023-05-06T20:30:31.890Z,665.17
2023-05-06T20:32:58.814Z,699.75
2023-05-06T20:35:26.099Z,676.92
2023-05-06T20:37:54.364Z,735.90
2023-05-06T20:40:20.962Z,731.08
2023-05-06T20:42:48.063Z,724.95
2023-05-06T20:45:14.504Z,705.35
2023-05-06T20:47:40.947Z,739.30
2023-05-06T20:50:07.524Z,722.58
2023-05-06T20:52:34.031Z,752.45
2023-05-06T20:55:00.972Z,734.05
2023-05-06T20:57:28.312Z,712.67
2023-05-06T20:59:55.984Z,762.72
2023-05-06T21:02:22.445Z,776.97
2023-05-06T21:04:49.255Z,743.72
2023-05-06T21:07:15.671Z,737.42
2023-05-06T21:09:42.027Z,725.95
2023-05-06T21:12:08.400Z,731.97
2023-05-06T21:14:34.788Z,711.60
2023-05-06T21:17:01.351Z,692.85
2023-05-06T21:19:27.838Z,714.08
2023-05-06T21:21:54.188Z,636.20
2023-05-06T21:24:20.558Z,600.05
2023-05-06T21:26:47.007Z,569.85
2023-05-06T21:29:13.352Z,586.90
2023-05-06T21:31:39.961Z,625.28
2023-05-06T21:34:07.908Z,621.15
2023-05-06T21:36:36.231Z,620.42
2023-05-06T21:39:08.507Z,599.28
2023-05-06T21:41:35.985Z,614.05
2023-05-06T21:44:06.827Z,531.40
2023-05-06T21:46:33.747Z,538.67
2023-05-06T21:49:00.705Z,550.30
2023-05-06T21:51:29.045Z,573.17
2023-05-06T21:53:55.504Z,597.45
2023-05-06T21:56:22.155Z,605.22
2023-05-06T21:58:48.786Z,563.88
2023-05-06T22:01:15.614Z,602.05
2023-05-06T22:03:43.908Z,606.35
2023-05-06T22:06:11.083Z,605.92
2023-05-06T22:08:37.578Z,589.28
2023-05-06T22:11:04.166Z,574.67
2023-05-06T22:13:31.072Z,591.33
2023-05-06T22:15:57.686Z,615.65
2023-05-06T22:18:25.846Z,620.88
2023-05-06T22:20:56.385Z,598.03
2023-05-06T22:23:24.293Z,601.33
2023-05-06T22:25:54.120Z,609.45
2023-05-06T22:28:20.652Z,650.95
2023-05-06T22:30:47.091Z,672.72
2023-05-06T22:33:13.467Z,696.30
2023-05-06T22:35:40.328Z,688.55
2023-05-06T22:38:06.739Z,688.25
2023-05-06T22:40:33.067Z,703.47
2023-05-06T22:42:59.524Z,699.22
2023-05-06T22:45:26.046Z,662.35
2023-05-06T22:47:52.447Z,679.95
2023-05-06T22:50:18.928Z,656.72
2023-05-06T22:52:45.443Z,653.90
2023-05-06T22:55:12.124Z,690.60
2023-05-06T22:57:38.954Z,706.47
2023-05-06T23:00:08.105Z,722.42
2023-05-06T23:02:34.570Z,695.67
2023-05-06T23:05:01.242Z,650.08
2023-05-06T23:07:27.667Z,657.53
2023-05-06T23:09:54.087Z,693.78
2023-05-06T23:12:20.578Z,729.45
2023-05-06T23:14:47.070Z,716.38
2023-05-06T23:17:13.535Z,713.03
2023-05-06T23:19:40.153Z,703.80
2023-05-06T23:22:06.498Z,708.28
2023-05-06T23:24:32.847Z,696.13
2023-05-06T23:26:59.343Z,704.38
2023-05-06T23:29:26.299Z,676.72
2023-05-06T23:31:52.867Z,679.58
2023-05-06T23:34:19.513Z,675.80
2023-05-06T23:36:45.874Z,678.80
2023-05-06T23:39:12.416Z,705.22
2023-05-06T23:41:38.877Z,696.75
2023-05-06T23:44:06.041Z,680.17
2023-05-06T23:46:32.913Z,668.28
2023-05-06T23:48:59.378Z,661.80
2023-05-06T23:51:26.504Z,682.13
2023-05-06T23:53:53.155Z,679.10
2023-05-06T23:56:20.554Z,712.65
2023-05-06T23:58:46.953Z,706.80
